Terminal Aerodrome Forecast
Issued by NWS

Home | Current Version | Previous Version | Text Only | Print | Product List | Glossary Off
Versions: 1 2 3 4 5 6 7 8 9 10 11 12 13 14 15 16 17 18 19 20 21 22 23 24 25 26 27 28 29 30 31 32

262
FTUS43 KLOT 190339 AAA
TAFMDW
TAF AMD
KMDW 190339Z 1904/1924 23005KT P6SM SCT120 BKN250
     FM190900 26005KT P6SM VCTS BKN050CB
     FM191100 28005KT P6SM BKN050
     FM191400 33008KT P6SM BKN080
     FM191700 05008KT P6SM SCT015 BKN050=

USA.gov is the U.S. government's official web portal to all federal, state and local government web resources and services.